Time;durP1;ratioP1;P1;durP2;ratioP2;P2;SDS_P1;SDS_P2;PMS_P1;PMS_P2;Temp;Humidity;BMP_temperature;BMP_pressure;BME280_temperature;BME280_humidity;BME280_pressure;Samples;Min_cycle;Max_cycle;Signal;HPM_P1;HPM_P2
2023/12/16 00:01:31;;;;;;;;;;;6.40;92.90;;;;;;5029681;28;20295;-89
2023/12/16 00:03:57;;;;;;;;;;;6.40;92.90;;;;;;5033211;28;19908;-89
2023/12/16 00:06:23;;;;;;;;;;;6.30;93.00;;;;;;5051645;28;19908;-89
2023/12/16 00:08:48;;;;;;;;;;;6.20;93.20;;;;;;5033191;28;19913;-88
2023/12/16 00:11:14;;;;;;;;;;;6.10;93.40;;;;;;5051033;28;19963;-88
2023/12/16 00:13:40;;;;;;;;;;;6.00;93.50;;;;;;5033147;28;19943;-88
2023/12/16 00:16:05;;;;;;;;;;;5.90;93.80;;;;;;5033199;28;19919;-88
2023/12/16 00:18:31;;;;;;;;;;;5.70;94.20;;;;;;5033025;28;20644;-88
2023/12/16 00:20:56;;;;;;;;;;;5.70;94.10;;;;;;5033077;28;20410;-87
2023/12/16 00:23:22;;;;;;;;;;;5.80;93.80;;;;;;5033029;28;20725;-88
2023/12/16 00:25:47;;;;;;;;;;;5.70;94.00;;;;;;5032540;28;19938;-88
2023/12/16 00:28:13;;;;;;;;;;;5.60;93.90;;;;;;5033352;28;20264;-88
2023/12/16 00:30:38;;;;;;;;;;;5.70;94.30;;;;;;5032687;28;19921;-88
2023/12/16 00:33:04;;;;;;;;;;;5.50;94.50;;;;;;5032661;28;19908;-88
2023/12/16 00:35:29;;;;;;;;;;;5.60;94.40;;;;;;5050454;28;19919;-87
2023/12/16 00:37:55;;;;;;;;;;;5.60;94.20;;;;;;5032382;28;20408;-87
2023/12/16 00:40:21;;;;;;;;;;;5.50;94.60;;;;;;5032576;28;20732;-87
2023/12/16 00:42:46;;;;;;;;;;;5.50;94.40;;;;;;5032593;28;19931;-87
2023/12/16 00:45:12;;;;;;;;;;;5.40;94.60;;;;;;5032392;28;19915;-87
2023/12/16 00:47:38;;;;;;;;;;;5.40;94.60;;;;;;5032480;28;19908;-87
2023/12/16 00:50:04;;;;;;;;;;;5.50;94.40;;;;;;5050433;28;19909;-87
2023/12/16 00:52:30;;;;;;;;;;;5.30;94.60;;;;;;5032441;28;19944;-87
2023/12/16 00:54:56;;;;;;;;;;;5.30;94.80;;;;;;5032668;28;19959;-87
2023/12/16 00:57:21;;;;;;;;;;;5.30;95.00;;;;;;5032258;28;19909;-87
2023/12/16 00:59:47;;;;;;;;;;;5.20;95.40;;;;;;5032263;28;20701;-87
2023/12/16 01:02:12;;;;;;;;;;;5.10;95.70;;;;;;5032580;28;20006;-87
2023/12/16 01:04:38;;;;;;;;;;;5.10;95.90;;;;;;5051616;28;19963;-88
2023/12/16 01:07:03;;;;;;;;;;;5.10;95.90;;;;;;5033637;28;20447;-86
2023/12/16 01:09:29;;;;;;;;;;;5.20;95.50;;;;;;5033456;28;19931;-88
2023/12/16 01:11:55;;;;;;;;;;;5.20;95.30;;;;;;5033549;28;20564;-88
2023/12/16 01:14:20;;;;;;;;;;;5.20;95.60;;;;;;5050441;28;19915;-87
2023/12/16 01:16:46;;;;;;;;;;;5.10;95.80;;;;;;5032545;28;20520;-88
2023/12/16 01:19:11;;;;;;;;;;;5.10;95.60;;;;;;5051108;28;19908;-90
2023/12/16 01:21:41;;;;;;;;;;;5.10;95.70;;;;;;5033761;28;19932;-90
2023/12/16 01:24:06;;;;;;;;;;;5.20;95.60;;;;;;5051082;28;19951;-90
2023/12/16 01:26:32;;;;;;;;;;;5.20;95.70;;;;;;5069290;28;19944;-90
2023/12/16 01:28:57;;;;;;;;;;;5.20;95.50;;;;;;5051513;28;20418;-89
2023/12/16 01:31:23;;;;;;;;;;;5.20;95.60;;;;;;5032794;28;19945;-88
2023/12/16 01:33:48;;;;;;;;;;;5.10;95.70;;;;;;5032766;28;19904;-89
2023/12/16 01:36:14;;;;;;;;;;;5.00;95.90;;;;;;5031740;28;19981;-90
2023/12/16 01:38:39;;;;;;;;;;;5.10;96.00;;;;;;5050165;28;19908;-90
2023/12/16 01:41:05;;;;;;;;;;;5.10;96.10;;;;;;5035917;28;19909;-88
2023/12/16 01:43:30;;;;;;;;;;;4.90;96.30;;;;;;5041383;28;19909;-86
2023/12/16 01:46:01;;;;;;;;;;;4.90;96.60;;;;;;5048819;28;19919;-86
2023/12/16 01:48:27;;;;;;;;;;;4.90;96.80;;;;;;5030720;28;19908;-87
2023/12/16 01:50:52;;;;;;;;;;;4.80;96.90;;;;;;5049293;28;19909;-85
2023/12/16 01:53:18;;;;;;;;;;;4.90;96.80;;;;;;5031445;28;19912;-86
2023/12/16 01:55:43;;;;;;;;;;;4.90;96.90;;;;;;5049080;28;19909;-87
2023/12/16 01:58:09;;;;;;;;;;;4.80;97.20;;;;;;5048818;28;19908;-86
2023/12/16 02:00:35;;;;;;;;;;;4.80;97.10;;;;;;5030691;28;19944;-85
2023/12/16 02:03:01;;;;;;;;;;;4.80;96.90;;;;;;5031476;28;19908;-85
2023/12/16 02:05:27;;;;;;;;;;;4.90;96.80;;;;;;5030746;28;19919;-87
2023/12/16 02:07:53;;;;;;;;;;;4.80;96.90;;;;;;5049164;28;19908;-87
2023/12/16 02:10:18;;;;;;;;;;;4.70;97.00;;;;;;5048749;28;20003;-85
2023/12/16 02:12:44;;;;;;;;;;;4.70;97.20;;;;;;5049058;28;19908;-86
2023/12/16 02:15:09;;;;;;;;;;;4.90;96.70;;;;;;5030752;28;19959;-85
2023/12/16 02:17:35;;;;;;;;;;;4.90;96.30;;;;;;5048918;28;19909;-86
2023/12/16 02:20:00;;;;;;;;;;;5.00;96.20;;;;;;5048415;28;20777;-85
2023/12/16 02:22:26;;;;;;;;;;;4.90;96.20;;;;;;5030311;28;20393;-86
2023/12/16 02:24:52;;;;;;;;;;;4.90;96.20;;;;;;5047290;28;19955;-85
2023/12/16 02:27:18;;;;;;;;;;;4.80;96.20;;;;;;5049240;28;19948;-86
2023/12/16 02:29:43;;;;;;;;;;;4.80;96.40;;;;;;5049833;28;19974;-86
2023/12/16 02:32:09;;;;;;;;;;;4.70;96.50;;;;;;5049262;28;19921;-87
2023/12/16 02:34:34;;;;;;;;;;;4.70;96.70;;;;;;5049688;28;19919;-86
2023/12/16 02:37:05;;;;;;;;;;;4.80;96.70;;;;;;5048751;28;19947;-86
2023/12/16 02:39:32;;;;;;;;;;;4.70;97.00;;;;;;5030088;28;19936;-87
2023/12/16 02:41:57;;;;;;;;;;;4.70;96.90;;;;;;5031249;28;19913;-87
2023/12/16 02:44:23;;;;;;;;;;;4.80;96.70;;;;;;5047161;28;19913;-88
2023/12/16 02:46:49;;;;;;;;;;;4.70;96.70;;;;;;5030559;28;19934;-88
2023/12/16 02:49:14;;;;;;;;;;;4.70;96.80;;;;;;5031324;28;20379;-88
2023/12/16 02:51:40;;;;;;;;;;;4.60;97.00;;;;;;5029949;28;20299;-87
2023/12/16 02:54:05;;;;;;;;;;;4.60;96.90;;;;;;5029751;28;20003;-86
2023/12/16 02:56:31;;;;;;;;;;;4.60;96.90;;;;;;5048189;28;19909;-87
2023/12/16 02:58:57;;;;;;;;;;;4.50;97.20;;;;;;5047884;28;19909;-86
2023/12/16 03:01:22;;;;;;;;;;;4.40;97.70;;;;;;5027161;28;20042;-87
2023/12/16 03:03:47;;;;;;;;;;;4.40;97.60;;;;;;5042727;28;19980;-86
2023/12/16 03:06:13;;;;;;;;;;;4.40;97.70;;;;;;5047750;28;19976;-85
2023/12/16 03:08:39;;;;;;;;;;;4.40;98.00;;;;;;5047487;28;19928;-86
2023/12/16 03:11:04;;;;;;;;;;;4.40;98.00;;;;;;5047535;28;19909;-84
2023/12/16 03:13:30;;;;;;;;;;;4.40;97.80;;;;;;5047673;28;19908;-84
2023/12/16 03:15:56;;;;;;;;;;;4.40;97.70;;;;;;5034956;28;19909;-85
2023/12/16 03:18:22;;;;;;;;;;;4.40;97.90;;;;;;5029950;28;20261;-85
2023/12/16 03:20:48;;;;;;;;;;;4.20;98.20;;;;;;5047404;28;19919;-87
2023/12/16 03:23:14;;;;;;;;;;;4.20;98.60;;;;;;5047222;28;19909;-85
2023/12/16 03:25:39;;;;;;;;;;;4.10;98.80;;;;;;5046899;28;20306;-85
2023/12/16 03:28:05;;;;;;;;;;;4.10;98.80;;;;;;5063077;28;19909;-85
2023/12/16 03:30:30;;;;;;;;;;;4.10;98.70;;;;;;5028986;28;20272;-84
2023/12/16 03:32:56;;;;;;;;;;;4.10;98.60;;;;;;5047624;28;19909;-84
2023/12/16 03:35:22;;;;;;;;;;;4.10;98.70;;;;;;5029641;28;19908;-87
2023/12/16 03:37:48;;;;;;;;;;;4.20;98.60;;;;;;5034969;28;19916;-86
2023/12/16 03:40:13;;;;;;;;;;;4.20;98.50;;;;;;5036116;28;20608;-87
2023/12/16 03:42:39;;;;;;;;;;;4.30;98.40;;;;;;5035704;28;19912;-85
2023/12/16 03:45:05;;;;;;;;;;;4.30;98.00;;;;;;5054081;28;19913;-83
2023/12/16 03:47:31;;;;;;;;;;;4.20;98.40;;;;;;5054416;28;19908;-82
2023/12/16 03:49:56;;;;;;;;;;;4.30;98.20;;;;;;5069368;28;19977;-83
2023/12/16 03:52:22;;;;;;;;;;;4.20;98.40;;;;;;5036678;28;19909;-82
2023/12/16 03:54:48;;;;;;;;;;;4.10;98.60;;;;;;5036749;28;20058;-83
2023/12/16 03:57:13;;;;;;;;;;;4.00;98.90;;;;;;5070159;28;20085;-84
2023/12/16 03:59:39;;;;;;;;;;;3.80;99.60;;;;;;5036779;28;19912;-83
2023/12/16 04:02:04;;;;;;;;;;;3.90;99.60;;;;;;5035956;28;19908;-87
2023/12/16 04:04:32;;;;;;;;;;;4.00;99.50;;;;;;5035893;28;19978;-87
2023/12/16 04:07:00;;;;;;;;;;;4.10;99.10;;;;;;5054168;28;19908;-87
2023/12/16 04:09:29;;;;;;;;;;;4.00;99.30;;;;;;5054594;28;20602;-88
2023/12/16 04:11:54;;;;;;;;;;;4.00;99.40;;;;;;5036949;28;20011;-87
2023/12/16 04:14:20;;;;;;;;;;;3.90;99.50;;;;;;5035991;28;20015;-88
2023/12/16 04:16:46;;;;;;;;;;;3.80;99.80;;;;;;5053982;28;19917;-88
2023/12/16 04:19:12;;;;;;;;;;;3.80;99.90;;;;;;5053510;28;19916;-86
2023/12/16 04:21:37;;;;;;;;;;;3.70;99.90;;;;;;5053597;28;19909;-86
2023/12/16 04:24:03;;;;;;;;;;;3.70;99.90;;;;;;5037738;28;19962;-85
2023/12/16 04:26:29;;;;;;;;;;;3.60;99.90;;;;;;5035866;28;20096;-85
2023/12/16 04:28:55;;;;;;;;;;;3.60;99.90;;;;;;5053541;28;19908;-85
2023/12/16 04:31:20;;;;;;;;;;;3.50;99.90;;;;;;5035534;28;19928;-84
2023/12/16 04:33:48;;;;;;;;;;;3.50;99.90;;;;;;5035577;28;19912;-87
2023/12/16 04:36:17;;;;;;;;;;;3.30;99.90;;;;;;5053759;28;19916;-88
2023/12/16 04:38:43;;;;;;;;;;;3.30;99.90;;;;;;5035704;28;20402;-89
2023/12/16 04:41:12;;;;;;;;;;;3.30;99.90;;;;;;5047641;28;19917;-86
2023/12/16 04:43:38;;;;;;;;;;;3.30;99.90;;;;;;5028459;28;19919;-87
2023/12/16 04:46:04;;;;;;;;;;;3.20;99.90;;;;;;5035267;28;19917;-84
2023/12/16 04:48:29;;;;;;;;;;;3.20;99.90;;;;;;5033109;28;19909;-86
2023/12/16 04:50:55;;;;;;;;;;;3.30;99.90;;;;;;5066459;28;19909;-86
2023/12/16 04:53:20;;;;;;;;;;;3.20;99.90;;;;;;5031572;28;19909;-86
2023/12/16 04:55:46;;;;;;;;;;;3.30;99.90;;;;;;5031931;28;20281;-87
2023/12/16 04:58:12;;;;;;;;;;;3.30;99.90;;;;;;5065634;28;19963;-88
2023/12/16 05:00:37;;;;;;;;;;;3.30;99.90;;;;;;5049759;28;19951;-84
2023/12/16 05:03:03;;;;;;;;;;;3.30;99.90;;;;;;5032734;28;19960;-84
2023/12/16 05:05:29;;;;;;;;;;;3.30;99.90;;;;;;5050009;28;19927;-83
2023/12/16 05:07:54;;;;;;;;;;;3.20;99.90;;;;;;5050680;28;20299;-84
2023/12/16 05:10:20;;;;;;;;;;;3.10;99.90;;;;;;5050503;28;19951;-83
2023/12/16 05:12:45;;;;;;;;;;;3.20;99.90;;;;;;5050350;28;20667;-86
2023/12/16 05:15:11;;;;;;;;;;;3.10;99.90;;;;;;5031943;28;20089;-86
2023/12/16 05:17:36;;;;;;;;;;;3.10;99.90;;;;;;5032965;28;19915;-86
2023/12/16 05:20:02;;;;;;;;;;;2.90;99.90;;;;;;5051180;28;19904;-84
2023/12/16 05:22:33;;;;;;;;;;;3.00;99.90;;;;;;5033203;28;19935;-84
2023/12/16 05:24:59;;;;;;;;;;;2.90;99.90;;;;;;5050783;28;19919;-85
2023/12/16 05:27:25;;;;;;;;;;;2.90;99.90;;;;;;5050505;28;19908;-94
2023/12/16 05:29:50;;;;;;;;;;;2.90;99.90;;;;;;5034326;28;19908;-91
2023/12/16 05:32:16;;;;;;;;;;;3.00;99.90;;;;;;5034308;28;20303;-91
2023/12/16 05:34:41;;;;;;;;;;;3.10;99.90;;;;;;5040776;28;19945;-89
2023/12/16 05:37:07;;;;;;;;;;;3.10;99.90;;;;;;5032909;28;19912;-90
2023/12/16 05:39:32;;;;;;;;;;;3.10;99.90;;;;;;5037147;28;19908;-93
2023/12/16 05:41:58;;;;;;;;;;;3.00;99.90;;;;;;5037534;28;19913;-91
2023/12/16 05:44:23;;;;;;;;;;;3.00;99.90;;;;;;5035545;28;19913;-89
2023/12/16 05:46:49;;;;;;;;;;;2.90;99.90;;;;;;5052650;28;19909;-89
2023/12/16 05:49:15;;;;;;;;;;;2.90;99.90;;;;;;5038559;28;20441;-87
2023/12/16 05:51:41;;;;;;;;;;;2.90;99.90;;;;;;5049283;28;19919;-86
2023/12/16 05:54:08;;;;;;;;;;;2.90;99.90;;;;;;5030831;28;21040;-89
2023/12/16 05:56:33;;;;;;;;;;;2.90;99.90;;;;;;5038634;28;19919;-89
2023/12/16 05:58:59;;;;;;;;;;;2.90;99.90;;;;;;5040589;28;20579;-94
2023/12/16 06:01:24;;;;;;;;;;;2.90;99.90;;;;;;5036618;28;19912;-90
2023/12/16 06:03:50;;;;;;;;;;;2.90;99.90;;;;;;5037409;28;19948;-94
2023/12/16 06:06:16;;;;;;;;;;;2.90;99.90;;;;;;5036513;28;19912;-92
2023/12/16 06:08:41;;;;;;;;;;;2.90;99.90;;;;;;5038510;28;19967;-87
2023/12/16 06:11:11;;;;;;;;;;;2.90;99.90;;;;;;5048166;28;20040;-87
2023/12/16 06:13:37;;;;;;;;;;;2.90;99.90;;;;;;5030915;28;19917;-88
2023/12/16 06:16:03;;;;;;;;;;;3.00;99.90;;;;;;5035173;28;19951;-88
2023/12/16 06:18:29;;;;;;;;;;;2.90;99.90;;;;;;5047548;28;19916;-90
2023/12/16 06:20:54;;;;;;;;;;;2.90;99.90;;;;;;5045582;28;19958;-93
2023/12/16 06:23:20;;;;;;;;;;;2.90;99.90;;;;;;5066900;28;19908;-93
2023/12/16 06:25:45;;;;;;;;;;;3.00;99.90;;;;;;5040299;28;19959;-94
2023/12/16 06:28:11;;;;;;;;;;;2.90;99.90;;;;;;5040008;28;19995;-91
2023/12/16 06:30:38;;;;;;;;;;;3.00;99.90;;;;;;5028286;28;20007;-90
2023/12/16 06:33:03;;;;;;;;;;;3.00;99.90;;;;;;5027425;28;19960;-86
2023/12/16 06:35:29;;;;;;;;;;;2.90;99.90;;;;;;5028967;28;19936;-85
2023/12/16 06:37:54;;;;;;;;;;;3.00;99.90;;;;;;5022431;28;19916;-92
2023/12/16 06:40:20;;;;;;;;;;;3.00;99.90;;;;;;5029192;28;19916;-90
2023/12/16 06:42:45;;;;;;;;;;;2.90;99.90;;;;;;5027096;28;19913;-87
2023/12/16 06:45:11;;;;;;;;;;;2.80;99.90;;;;;;5029639;28;19928;-89
2023/12/16 06:47:37;;;;;;;;;;;2.70;99.90;;;;;;5035913;28;20436;-89
2023/12/16 06:50:03;;;;;;;;;;;2.70;99.90;;;;;;5036514;28;19913;-90
2023/12/16 06:52:28;;;;;;;;;;;2.60;99.90;;;;;;5025908;28;19917;-87
2023/12/16 06:54:54;;;;;;;;;;;2.70;99.90;;;;;;5023068;28;20008;-88
2023/12/16 06:57:20;;;;;;;;;;;2.60;99.90;;;;;;5025675;28;20051;-89
2023/12/16 06:59:45;;;;;;;;;;;2.60;99.90;;;;;;5025652;28;19917;-91
2023/12/16 07:02:11;;;;;;;;;;;2.50;99.90;;;;;;5030914;28;19913;-88
2023/12/16 07:04:36;;;;;;;;;;;2.50;99.90;;;;;;5036589;28;20015;-88
2023/12/16 07:07:02;;;;;;;;;;;2.40;99.90;;;;;;5026799;28;19909;-88
2023/12/16 07:09:28;;;;;;;;;;;2.30;99.90;;;;;;5026260;28;19992;-86
2023/12/16 07:11:53;;;;;;;;;;;2.30;99.90;;;;;;5026767;28;19916;-90
2023/12/16 07:14:19;;;;;;;;;;;2.20;99.90;;;;;;5029051;28;19920;-89
2023/12/16 07:16:44;;;;;;;;;;;2.20;99.90;;;;;;5030124;28;19909;-90
2023/12/16 07:19:10;;;;;;;;;;;2.10;99.90;;;;;;5032336;28;19913;-89
2023/12/16 07:21:40;;;;;;;;;;;2.10;99.90;;;;;;5037740;28;19909;-93
2023/12/16 07:24:05;;;;;;;;;;;2.10;99.90;;;;;;5022108;28;19988;-91
2023/12/16 07:26:31;;;;;;;;;;;2.20;99.90;;;;;;5026522;28;20343;-86
2023/12/16 07:28:57;;;;;;;;;;;2.30;99.90;;;;;;5028204;28;19913;-86
2023/12/16 07:31:22;;;;;;;;;;;2.20;99.90;;;;;;5020238;28;19967;-94
2023/12/16 07:33:48;;;;;;;;;;;2.20;99.90;;;;;;5012488;28;19916;-93
2023/12/16 07:36:15;;;;;;;;;;;2.20;99.90;;;;;;5019488;28;19924;-93
2023/12/16 07:38:41;;;;;;;;;;;2.20;99.90;;;;;;5012156;28;20428;-93
2023/12/16 07:41:07;;;;;;;;;;;2.20;99.90;;;;;;5010827;28;19943;-93
2023/12/16 07:43:32;;;;;;;;;;;2.20;99.90;;;;;;5042811;28;20333;-86
2023/12/16 07:45:58;;;;;;;;;;;2.20;99.90;;;;;;5009030;28;19948;-89
2023/12/16 07:48:24;;;;;;;;;;;2.30;99.90;;;;;;5006508;28;19913;-88
2023/12/16 07:50:53;;;;;;;;;;;2.30;99.90;;;;;;5007434;28;19920;-92
2023/12/16 07:53:22;;;;;;;;;;;2.40;99.90;;;;;;5005275;28;19918;-86
2023/12/16 07:55:48;;;;;;;;;;;2.60;99.90;;;;;;5012474;28;19918;-84
2023/12/16 07:58:14;;;;;;;;;;;2.80;99.90;;;;;;5008843;28;19992;-86
2023/12/16 08:00:40;;;;;;;;;;;2.90;99.90;;;;;;5039521;28;19953;-86
2023/12/16 08:03:05;;;;;;;;;;;3.40;99.90;;;;;;5006483;28;20344;-86
2023/12/16 08:05:31;;;;;;;;;;;4.10;99.90;;;;;;5008876;28;20494;-90
2023/12/16 08:07:56;;;;;;;;;;;4.50;99.90;;;;;;5008329;28;20000;-86
2023/12/16 08:10:22;;;;;;;;;;;4.80;99.90;;;;;;5007393;28;19917;-92
2023/12/16 08:12:47;;;;;;;;;;;4.90;99.90;;;;;;5006703;28;19913;-89
2023/12/16 08:15:13;;;;;;;;;;;5.20;99.90;;;;;;5005142;28;19916;-88
2023/12/16 08:17:39;;;;;;;;;;;5.40;99.90;;;;;;5018842;28;19989;-88
2023/12/16 08:20:05;;;;;;;;;;;5.50;99.60;;;;;;5005892;28;20002;-90
2023/12/16 08:22:31;;;;;;;;;;;5.60;99.50;;;;;;5017173;28;19960;-85
2023/12/16 08:24:57;;;;;;;;;;;5.70;99.50;;;;;;5008600;28;19960;-87
2023/12/16 08:27:23;;;;;;;;;;;5.60;99.40;;;;;;5008099;28;20008;-85
2023/12/16 08:29:49;;;;;;;;;;;5.50;99.20;;;;;;5007320;28;20000;-86
2023/12/16 08:32:15;;;;;;;;;;;5.50;99.50;;;;;;5040881;28;19973;-86
2023/12/16 08:34:41;;;;;;;;;;;5.30;99.70;;;;;;5007689;28;19955;-86
2023/12/16 08:37:07;;;;;;;;;;;5.40;99.70;;;;;;5008118;28;19948;-85
2023/12/16 08:39:33;;;;;;;;;;;5.30;99.50;;;;;;5007950;28;19909;-86
2023/12/16 08:41:58;;;;;;;;;;;5.30;99.40;;;;;;5009753;28;19913;-85
2023/12/16 08:44:24;;;;;;;;;;;5.50;99.20;;;;;;5009825;28;20007;-86
2023/12/16 08:46:49;;;;;;;;;;;5.80;98.60;;;;;;5010150;28;19956;-86
2023/12/16 08:49:15;;;;;;;;;;;6.00;98.50;;;;;;5041213;28;19916;-85
2023/12/16 08:51:40;;;;;;;;;;;6.00;97.80;;;;;;5010334;28;20426;-85
2023/12/16 08:54:06;;;;;;;;;;;6.30;98.10;;;;;;5010414;28;19951;-84
2023/12/16 08:56:31;;;;;;;;;;;6.20;98.30;;;;;;5009392;28;19956;-84
2023/12/16 08:58:57;;;;;;;;;;;6.30;97.90;;;;;;5009909;28;19959;-84
2023/12/16 09:01:23;;;;;;;;;;;6.40;97.90;;;;;;5010623;28;19975;-84
2023/12/16 09:03:48;;;;;;;;;;;6.40;97.60;;;;;;5010271;28;19913;-85
2023/12/16 09:06:14;;;;;;;;;;;6.50;97.70;;;;;;5009460;28;20642;-84
2023/12/16 09:08:40;;;;;;;;;;;6.70;97.70;;;;;;5008268;28;19957;-84
2023/12/16 09:11:06;;;;;;;;;;;6.70;97.90;;;;;;5008128;28;20044;-84
2023/12/16 09:13:31;;;;;;;;;;;6.80;97.60;;;;;;5009740;28;19913;-85
2023/12/16 09:15:57;;;;;;;;;;;6.80;96.50;;;;;;5008958;28;19919;-84
2023/12/16 09:18:23;;;;;;;;;;;7.10;97.30;;;;;;5008858;28;20393;-84
2023/12/16 09:20:49;;;;;;;;;;;7.00;96.20;;;;;;5009244;28;20297;-85
2023/12/16 09:23:15;;;;;;;;;;;7.00;96.60;;;;;;5007879;28;19920;-84
2023/12/16 09:25:40;;;;;;;;;;;6.90;97.40;;;;;;5009155;28;19917;-83
2023/12/16 09:28:06;;;;;;;;;;;6.70;97.30;;;;;;5009849;28;19913;-88
2023/12/16 09:30:32;;;;;;;;;;;6.80;97.20;;;;;;5019921;28;19923;-82
2023/12/16 09:32:57;;;;;;;;;;;6.60;97.10;;;;;;5051903;28;20891;-82
2023/12/16 09:35:23;;;;;;;;;;;6.70;97.20;;;;;;5031679;28;19908;-82
2023/12/16 09:37:49;;;;;;;;;;;6.80;97.40;;;;;;5033540;28;19978;-81
2023/12/16 09:40:14;;;;;;;;;;;6.90;97.20;;;;;;5034271;28;20420;-82
2023/12/16 09:42:42;;;;;;;;;;;6.90;97.20;;;;;;5049258;28;19913;-83
2023/12/16 09:45:08;;;;;;;;;;;7.00;96.80;;;;;;5048609;28;19919;-83
2023/12/16 09:47:34;;;;;;;;;;;7.00;96.10;;;;;;5048767;28;19924;-80
2023/12/16 09:49:59;;;;;;;;;;;7.20;96.00;;;;;;5048766;28;20374;-82
2023/12/16 09:52:26;;;;;;;;;;;7.20;95.80;;;;;;5030299;28;20007;-84
2023/12/16 09:54:51;;;;;;;;;;;7.20;95.60;;;;;;5048208;28;19923;-83
2023/12/16 09:57:18;;;;;;;;;;;7.30;95.60;;;;;;5030557;28;19908;-85
2023/12/16 09:59:44;;;;;;;;;;;7.30;94.80;;;;;;5030066;28;19951;-83
2023/12/16 10:02:14;;;;;;;;;;;7.20;94.20;;;;;;5029963;28;19916;-82
2023/12/16 10:04:40;;;;;;;;;;;7.10;94.10;;;;;;5030339;28;19917;-80
2023/12/16 10:07:08;;;;;;;;;;;7.00;93.70;;;;;;5047961;28;19915;-83
2023/12/16 10:09:34;;;;;;;;;;;7.20;94.60;;;;;;5030053;28;19923;-83
2023/12/16 10:12:00;;;;;;;;;;;7.20;93.90;;;;;;5030155;28;19909;-83
2023/12/16 10:14:25;;;;;;;;;;;7.10;93.80;;;;;;5047591;28;19916;-82
2023/12/16 10:17:00;;;;;;;;;;;7.10;93.90;;;;;;5048102;28;19912;-82
2023/12/16 10:19:26;;;;;;;;;;;7.20;93.90;;;;;;5045857;28;19916;-81
2023/12/16 10:21:52;;;;;;;;;;;7.20;93.50;;;;;;5046876;28;19917;-86
2023/12/16 10:24:17;;;;;;;;;;;7.10;93.20;;;;;;5042834;28;19963;-84
2023/12/16 10:26:43;;;;;;;;;;;7.00;93.50;;;;;;5047508;28;19921;-83
2023/12/16 10:29:10;;;;;;;;;;;7.00;93.40;;;;;;5047835;28;20716;-84
2023/12/16 10:31:35;;;;;;;;;;;6.90;94.20;;;;;;5048299;28;19973;-85
2023/12/16 10:34:01;;;;;;;;;;;6.80;94.30;;;;;;5044663;28;19909;-86
2023/12/16 10:36:28;;;;;;;;;;;6.80;94.20;;;;;;5042963;28;20000;-85
2023/12/16 10:38:53;;;;;;;;;;;6.80;94.00;;;;;;5047434;28;19913;-83
2023/12/16 10:41:21;;;;;;;;;;;6.90;93.90;;;;;;5030173;28;19965;-84
2023/12/16 10:43:47;;;;;;;;;;;7.00;94.30;;;;;;5030094;28;20007;-85
2023/12/16 10:46:15;;;;;;;;;;;7.10;94.70;;;;;;5029949;28;20050;-84
2023/12/16 10:48:42;;;;;;;;;;;7.00;94.40;;;;;;5049125;28;19909;-84
2023/12/16 10:51:09;;;;;;;;;;;7.20;94.40;;;;;;5048763;28;19908;-84
2023/12/16 10:53:41;;;;;;;;;;;7.20;94.40;;;;;;5049079;28;20490;-83
2023/12/16 10:56:10;;;;;;;;;;;7.20;94.60;;;;;;5030480;28;20299;-84
2023/12/16 10:58:40;;;;;;;;;;;7.20;94.50;;;;;;5048031;28;19958;-83
2023/12/16 11:01:09;;;;;;;;;;;7.40;94.20;;;;;;5029603;28;20301;-83
2023/12/16 11:03:37;;;;;;;;;;;7.30;93.10;;;;;;5029673;28;19908;-83
2023/12/16 11:06:06;;;;;;;;;;;7.40;92.70;;;;;;5029008;28;19920;-84
2023/12/16 11:08:33;;;;;;;;;;;7.20;92.70;;;;;;5047025;28;19982;-84
2023/12/16 11:10:59;;;;;;;;;;;7.40;92.90;;;;;;5029621;28;19988;-85
2023/12/16 11:13:25;;;;;;;;;;;7.30;92.90;;;;;;5029553;28;20019;-84
2023/12/16 11:15:52;;;;;;;;;;;7.30;92.90;;;;;;5047393;28;20303;-83
2023/12/16 11:18:22;;;;;;;;;;;7.30;93.00;;;;;;5047825;28;20020;-83
2023/12/16 11:20:49;;;;;;;;;;;7.20;93.00;;;;;;5029237;28;19923;-84
2023/12/16 11:23:16;;;;;;;;;;;7.20;93.90;;;;;;5029530;28;19958;-84
2023/12/16 11:25:45;;;;;;;;;;;7.20;93.90;;;;;;5029899;28;20391;-84
2023/12/16 11:28:13;;;;;;;;;;;7.40;94.80;;;;;;5047701;28;20191;-84
2023/12/16 11:30:39;;;;;;;;;;;7.40;94.90;;;;;;5048246;28;20017;-84
2023/12/16 11:33:04;;;;;;;;;;;7.50;94.00;;;;;;5029504;28;20028;-85
2023/12/16 11:35:37;;;;;;;;;;;7.40;94.40;;;;;;5029329;28;20035;-85
2023/12/16 11:38:03;;;;;;;;;;;7.40;95.10;;;;;;5047323;28;19909;-83
2023/12/16 11:40:39;;;;;;;;;;;7.60;95.20;;;;;;5046512;28;19959;-88
2023/12/16 11:43:04;;;;;;;;;;;7.60;94.90;;;;;;5058807;28;19926;-86
2023/12/16 11:45:39;;;;;;;;;;;7.50;93.90;;;;;;5028841;28;20003;-86
2023/12/16 11:48:06;;;;;;;;;;;7.70;94.90;;;;;;5028678;28;19913;-84
2023/12/16 11:50:32;;;;;;;;;;;7.70;94.70;;;;;;5046911;28;20015;-83
2023/12/16 11:52:58;;;;;;;;;;;7.70;93.80;;;;;;5047441;28;19908;-85
2023/12/16 11:55:24;;;;;;;;;;;7.70;93.50;;;;;;5047154;28;19971;-85
2023/12/16 11:57:49;;;;;;;;;;;7.60;94.50;;;;;;5048523;28;19917;-86
2023/12/16 12:00:16;;;;;;;;;;;7.50;95.50;;;;;;5051657;28;19920;-86
2023/12/16 12:02:42;;;;;;;;;;;7.50;95.90;;;;;;5033146;28;19908;-86
2023/12/16 12:05:11;;;;;;;;;;;7.40;96.30;;;;;;5050317;28;19913;-83
2023/12/16 12:07:38;;;;;;;;;;;7.50;95.80;;;;;;5034060;28;19912;-85
2023/12/16 12:10:04;;;;;;;;;;;7.50;95.10;;;;;;5034520;28;20090;-85
2023/12/16 12:12:29;;;;;;;;;;;7.60;94.80;;;;;;5055768;28;19952;-85
2023/12/16 12:14:55;;;;;;;;;;;7.70;94.50;;;;;;5033038;28;19909;-85
2023/12/16 12:17:21;;;;;;;;;;;7.60;93.80;;;;;;5049236;28;19920;-84
2023/12/16 12:19:47;;;;;;;;;;;7.60;93.60;;;;;;5032761;28;19916;-88
2023/12/16 12:22:13;;;;;;;;;;;7.60;94.10;;;;;;5051272;28;20042;-87
2023/12/16 12:24:39;;;;;;;;;;;7.70;94.40;;;;;;5033091;28;20008;-87
2023/12/16 12:27:04;;;;;;;;;;;7.60;93.70;;;;;;5050399;28;20007;-83
2023/12/16 12:29:49;;;;;;;;;;;7.70;93.70;;;;;;5032251;28;19967;-86
2023/12/16 12:32:14;;;;;;;;;;;7.70;93.00;;;;;;5050027;28;19974;-85
2023/12/16 12:34:40;;;;;;;;;;;7.70;92.50;;;;;;5051343;28;19904;-84
2023/12/16 12:37:05;;;;;;;;;;;7.70;91.90;;;;;;5048929;28;19912;-84
2023/12/16 12:39:31;;;;;;;;;;;7.70;92.50;;;;;;5048774;28;19912;-88
2023/12/16 12:42:01;;;;;;;;;;;7.70;94.70;;;;;;5032985;28;20479;-92
2023/12/16 12:44:27;;;;;;;;;;;7.80;97.30;;;;;;5029505;28;19919;-87
2023/12/16 12:46:52;;;;;;;;;;;7.80;99.90;;;;;;5030637;28;19912;-88
2023/12/16 12:49:19;;;;;;;;;;;7.70;99.90;;;;;;5030854;28;19948;-88
2023/12/16 12:51:51;;;;;;;;;;;7.70;99.90;;;;;;5044205;28;19913;-88
2023/12/16 12:54:18;;;;;;;;;;;7.70;99.90;;;;;;5031566;28;19952;-90
2023/12/16 12:56:44;;;;;;;;;;;7.70;99.90;;;;;;5031094;28;19917;-88
2023/12/16 12:59:09;;;;;;;;;;;7.60;99.90;;;;;;5049046;28;19923;-88
2023/12/16 13:01:35;;;;;;;;;;;7.60;99.90;;;;;;5048337;28;19909;-88
2023/12/16 13:04:00;;;;;;;;;;;7.60;99.90;;;;;;5031553;28;19920;-90
2023/12/16 13:06:26;;;;;;;;;;;7.60;99.90;;;;;;5031014;28;19912;-88
2023/12/16 13:08:51;;;;;;;;;;;7.60;99.90;;;;;;5031362;28;19911;-90
2023/12/16 13:11:17;;;;;;;;;;;7.60;99.90;;;;;;5033015;28;19905;-88
2023/12/16 13:13:42;;;;;;;;;;;7.50;99.90;;;;;;5033810;28;19979;-88
2023/12/16 13:16:09;;;;;;;;;;;7.50;99.90;;;;;;5032276;28;20467;-88
2023/12/16 13:18:40;;;;;;;;;;;7.50;99.90;;;;;;5035633;28;19915;-88
2023/12/16 13:21:06;;;;;;;;;;;7.50;99.90;;;;;;5028715;28;19917;-88
2023/12/16 13:23:32;;;;;;;;;;;7.60;99.90;;;;;;5053718;28;19909;-87
2023/12/16 13:25:58;;;;;;;;;;;7.60;99.90;;;;;;5049730;28;19991;-89
2023/12/16 13:28:23;;;;;;;;;;;7.50;99.90;;;;;;5028980;28;19964;-88
2023/12/16 13:30:52;;;;;;;;;;;7.50;99.90;;;;;;5028186;28;20474;-87
2023/12/16 13:33:18;;;;;;;;;;;7.50;99.90;;;;;;5023112;28;19919;-88
2023/12/16 13:35:46;;;;;;;;;;;7.60;99.90;;;;;;5051148;28;19968;-90
2023/12/16 13:38:11;;;;;;;;;;;7.50;99.90;;;;;;5050300;28;19920;-89
2023/12/16 13:40:37;;;;;;;;;;;7.50;99.90;;;;;;5050613;28;19908;-92
2023/12/16 13:43:03;;;;;;;;;;;7.40;99.90;;;;;;5035493;28;20268;-88
2023/12/16 13:45:29;;;;;;;;;;;7.40;99.90;;;;;;5030849;28;19951;-85
2023/12/16 13:47:55;;;;;;;;;;;7.40;99.90;;;;;;5034983;28;19966;-84
2023/12/16 13:50:21;;;;;;;;;;;7.30;99.90;;;;;;5048184;28;19912;-89
2023/12/16 13:52:49;;;;;;;;;;;7.30;99.90;;;;;;5033034;28;19959;-87
2023/12/16 13:55:16;;;;;;;;;;;7.30;99.90;;;;;;5031656;28;19990;-88
2023/12/16 13:57:42;;;;;;;;;;;7.30;99.90;;;;;;5030871;28;20402;-88
2023/12/16 14:00:08;;;;;;;;;;;7.30;99.90;;;;;;5048599;28;19909;-89
2023/12/16 14:02:34;;;;;;;;;;;7.20;99.90;;;;;;5033898;28;19913;-88
2023/12/16 14:05:01;;;;;;;;;;;7.30;99.90;;;;;;5030421;28;20597;-89
2023/12/16 14:07:30;;;;;;;;;;;7.30;99.90;;;;;;5033354;28;19908;-88
2023/12/16 14:09:56;;;;;;;;;;;7.30;99.90;;;;;;5030178;28;19908;-87
2023/12/16 14:12:22;;;;;;;;;;;7.30;99.90;;;;;;5048518;28;19908;-87
2023/12/16 14:14:47;;;;;;;;;;;7.30;99.90;;;;;;5038517;28;19948;-88
2023/12/16 14:17:16;;;;;;;;;;;7.20;99.90;;;;;;5048944;28;19938;-89
2023/12/16 14:19:41;;;;;;;;;;;7.20;99.90;;;;;;5030307;28;19909;-89
2023/12/16 14:22:07;;;;;;;;;;;7.20;99.90;;;;;;5029534;28;19919;-87
2023/12/16 14:24:33;;;;;;;;;;;7.20;99.90;;;;;;5034166;28;19948;-89